Time;durP1;ratioP1;P1;durP2;ratioP2;P2;SDS_P1;SDS_P2;PMS_P1;PMS_P2;Temp;Humidity;BMP_temperature;BMP_pressure;BME280_temperature;BME280_humidity;BME280_pressure;Samples;Min_cycle;Max_cycle;Signal;HPM_P1;HPM_P2
2023/09/11 00:02:03;;;;;;;14.67;13.50;;;20.90;99.90;;;;;;5135995;28;20213;-42
2023/09/11 00:04:29;;;;;;;12.47;11.57;;;20.90;99.90;;;;;;5135432;28;20555;-42
2023/09/11 00:06:54;;;;;;;13.30;12.27;;;20.90;1.00;;;;;;5135613;28;20376;-40
2023/09/11 00:09:20;;;;;;;13.57;12.37;;;20.80;1.00;;;;;;5135438;28;20230;-42
2023/09/11 00:11:46;;;;;;;13.93;12.63;;;20.80;1.00;;;;;;5100515;28;20479;-40
2023/09/11 00:14:12;;;;;;;13.63;12.43;;;20.80;1.00;;;;;;5135781;28;20202;-39
2023/09/11 00:16:37;;;;;;;13.87;12.77;;;20.80;1.00;;;;;;5136897;28;20248;-41
2023/09/11 00:19:03;;;;;;;13.13;12.03;;;20.80;1.00;;;;;;5135548;28;20432;-40
2023/09/11 00:21:29;;;;;;;13.40;12.40;;;20.70;1.00;;;;;;5136040;28;20226;-41
2023/09/11 00:23:55;;;;;;;14.13;13.03;;;20.70;1.00;;;;;;5136127;28;20468;-41
2023/09/11 00:26:20;;;;;;;13.70;12.50;;;20.70;1.00;;;;;;5120123;27;20191;-46
2023/09/11 00:28:46;;;;;;;14.50;13.30;;;20.70;1.00;;;;;;5139332;27;20225;-41
2023/09/11 00:31:11;;;;;;;13.70;12.63;;;20.70;1.00;;;;;;5139361;27;20191;-42
2023/09/11 00:33:37;;;;;;;13.53;12.33;;;20.70;1.00;;;;;;5139751;27;20501;-40
2023/09/11 00:36:03;;;;;;;13.77;12.30;;;20.70;1.00;;;;;;5121223;27;20199;-42
2023/09/11 00:38:28;;;;;;;15.30;13.80;;;20.60;1.00;;;;;;5137088;27;20564;-44
2023/09/11 00:40:54;;;;;;;13.43;12.33;;;20.60;1.00;;;;;;5119793;27;20195;-42
2023/09/11 00:43:19;;;;;;;14.13;12.90;;;20.60;1.00;;;;;;5136054;27;20283;-43
2023/09/11 00:45:46;;;;;;;12.17;11.17;;;20.60;13.20;;;;;;5117798;27;20210;-49
2023/09/11 00:48:12;;;;;;;13.67;12.43;;;20.60;99.90;;;;;;5119842;27;20179;-40
2023/09/11 00:50:38;;;;;;;14.10;12.90;;;20.60;60.10;;;;;;5139299;27;20409;-42
2023/09/11 00:53:06;;;;;;;13.90;12.80;;;20.60;69.60;;;;;;5120453;27;20415;-47
2023/09/11 00:55:33;;;;;;;12.80;11.70;;;20.60;56.80;;;;;;5137467;27;20493;-45
2023/09/11 00:57:58;;;;;;;14.17;12.87;;;20.60;91.40;;;;;;5119963;27;20432;-41
2023/09/11 01:00:24;;;;;;;13.17;12.03;;;20.60;71.80;;;;;;5138838;27;20814;-42
2023/09/11 01:02:49;;;;;;;14.13;13.03;;;20.60;99.90;;;;;;5139603;27;20191;-42
2023/09/11 01:05:15;;;;;;;13.20;12.20;;;20.60;99.90;;;;;;5121100;27;20583;-40
2023/09/11 01:07:41;;;;;;;13.90;12.80;;;20.60;99.90;;;;;;5139159;27;20262;-40
2023/09/11 01:10:07;;;;;;;12.60;11.50;;;20.60;81.80;;;;;;5121815;27;20250;-43
2023/09/11 01:12:37;;;;;;;12.30;11.20;;;20.50;19.30;;;;;;5121545;27;20219;-39
2023/09/11 01:15:04;;;;;;;13.00;11.83;;;20.50;22.90;;;;;;5121394;27;20879;-40
2023/09/11 01:17:42;;;;;;;14.40;12.90;;;20.50;99.90;;;;;;5104754;27;20524;-40
2023/09/11 01:20:39;;;;;;;13.87;12.77;;;20.40;99.90;;;;;;5139624;27;20489;-41
2023/09/11 01:23:40;;;;;;;12.27;11.23;;;20.40;99.90;;;;;;5140230;27;20580;-43
2023/09/11 01:26:18;;;;;;;12.77;11.77;;;20.40;99.90;;;;;;5139263;27;20721;-45
2023/09/11 01:29:12;;;;;;;13.57;12.43;;;20.40;99.90;;;;;;5121067;27;20633;-45
2023/09/11 01:31:38;;;;;;;13.80;12.60;;;20.30;99.90;;;;;;5120236;27;20671;-41
2023/09/11 01:34:05;;;;;;;13.80;12.57;;;20.30;99.90;;;;;;5138576;27;20429;-40
2023/09/11 01:36:30;;;;;;;12.20;11.20;;;20.30;99.90;;;;;;5136647;27;20629;-42
2023/09/11 01:38:56;;;;;;;14.23;12.90;;;20.20;99.90;;;;;;5137270;27;20505;-41
2023/09/11 01:41:32;;;;;;;12.00;11.10;;;20.20;99.90;;;;;;5137754;27;20203;-42
2023/09/11 01:44:00;;;;;;;14.20;13.00;;;20.20;1.00;;;;;;5121040;27;20446;-41
2023/09/11 01:46:26;;;;;;;13.20;12.10;;;20.20;99.90;;;;;;5120662;27;20443;-44
2023/09/11 01:48:53;;;;;;;12.90;11.73;;;20.20;99.90;;;;;;5120174;27;20479;-45
2023/09/11 01:51:19;;;;;;;13.03;12.03;;;20.10;99.90;;;;;;5139324;27;20433;-41
2023/09/11 01:53:45;;;;;;;13.17;12.07;;;20.10;1.00;;;;;;5121024;27;20408;-40
2023/09/11 01:56:11;;;;;;;12.63;11.63;;;20.10;1.00;;;;;;5103697;27;20791;-39
2023/09/11 01:58:37;;;;;;;14.63;12.70;;;20.10;1.00;;;;;;5120572;27;20432;-38
2023/09/11 02:01:02;;;;;;;13.43;12.33;;;20.10;1.00;;;;;;5137168;27;20436;-39
2023/09/11 02:03:28;;;;;;;12.07;11.07;;;20.00;1.00;;;;;;5136988;27;20179;-42
2023/09/11 02:05:54;;;;;;;14.70;13.50;;;20.00;1.00;;;;;;5137340;27;20476;-37
2023/09/11 02:08:20;;;;;;;12.20;11.20;;;20.00;1.00;;;;;;5119634;27;20449;-38
2023/09/11 02:10:46;;;;;;;13.33;11.97;;;20.00;1.00;;;;;;5138183;27;20515;-44
2023/09/11 02:13:12;;;;;;;12.47;11.33;;;20.00;1.00;;;;;;5138149;27;20548;-38
2023/09/11 02:15:37;;;;;;;13.60;12.50;;;19.90;1.00;;;;;;5137420;27;20429;-40
2023/09/11 02:18:03;;;;;;;12.20;11.30;;;19.90;1.00;;;;;;5137093;27;20179;-38
2023/09/11 02:20:29;;;;;;;12.20;11.10;;;19.90;1.00;;;;;;5138038;27;20202;-39
2023/09/11 02:22:54;;;;;;;12.60;11.60;;;19.90;1.00;;;;;;5137806;27;20179;-41
2023/09/11 02:25:20;;;;;;;12.70;11.50;;;19.90;1.00;;;;;;5137673;27;20218;-37
2023/09/11 02:27:45;;;;;;;15.57;11.73;;;20.00;1.00;;;;;;5137832;27;20579;-42
2023/09/11 02:30:11;;;;;;;12.20;11.10;;;20.00;1.00;;;;;;5137853;27;20276;-37
2023/09/11 02:32:37;;;;;;;12.17;11.10;;;20.00;99.90;;;;;;5138831;27;20203;-37
2023/09/11 02:35:02;;;;;;;11.87;10.67;;;19.90;99.90;;;;;;5138357;27;20183;-39
2023/09/11 02:37:28;;;;;;;11.63;10.50;;;19.90;99.90;;;;;;5138216;27;20500;-39
2023/09/11 02:39:53;;;;;;;12.17;11.03;;;19.90;99.90;;;;;;5138039;27;20191;-37
2023/09/11 02:42:19;;;;;;;11.03;10.07;;;20.00;99.90;;;;;;5137621;27;20205;-39
2023/09/11 02:44:45;;;;;;;11.33;10.33;;;19.90;99.90;;;;;;5138061;27;20186;-40
2023/09/11 02:47:11;;;;;;;11.63;10.57;;;19.90;99.90;;;;;;5138616;27;20182;-39
2023/09/11 02:49:36;;;;;;;12.13;11.13;;;19.90;99.90;;;;;;5137262;27;20476;-38
2023/09/11 02:52:02;;;;;;;11.20;10.20;;;19.90;99.90;;;;;;5119225;27;20263;-41
2023/09/11 02:54:27;;;;;;;11.60;10.50;;;19.80;99.90;;;;;;5137418;27;20197;-40
2023/09/11 02:56:53;;;;;;;12.30;11.10;;;19.80;99.90;;;;;;5137309;27;20628;-40
2023/09/11 02:59:18;;;;;;;11.90;10.80;;;19.80;99.90;;;;;;5137125;27;20190;-41
2023/09/11 03:01:44;;;;;;;11.00;10.00;;;19.80;99.90;;;;;;5137785;27;20282;-41
2023/09/11 03:04:10;;;;;;;10.63;9.63;;;19.80;99.90;;;;;;5137971;27;20202;-40
2023/09/11 03:06:35;;;;;;;11.63;10.63;;;19.80;99.90;;;;;;5137869;27;20466;-41
2023/09/11 03:09:03;;;;;;;11.53;10.60;;;19.80;99.90;;;;;;5137258;27;20218;-38
2023/09/11 03:11:28;;;;;;;11.40;10.50;;;19.80;99.90;;;;;;5138034;27;20175;-39
2023/09/11 03:13:54;;;;;;;13.63;10.80;;;19.80;99.90;;;;;;5136830;27;20865;-38
2023/09/11 03:16:19;;;;;;;12.10;11.07;;;19.80;99.90;;;;;;5135559;27;20187;-45
2023/09/11 03:18:45;;;;;;;10.87;9.70;;;19.80;99.90;;;;;;5136060;27;20646;-41
2023/09/11 03:21:10;;;;;;;11.93;10.93;;;19.80;99.90;;;;;;5136336;27;20486;-44
2023/09/11 03:23:36;;;;;;;11.47;10.47;;;19.70;99.90;;;;;;5135669;27;20534;-40
2023/09/11 03:26:02;;;;;;;10.87;9.87;;;19.70;99.90;;;;;;5133965;27;20183;-38
2023/09/11 03:28:29;;;;;;;11.27;10.30;;;19.70;99.90;;;;;;5133393;27;20279;-38
2023/09/11 03:30:55;;;;;;;11.33;10.30;;;19.70;99.90;;;;;;5135491;27;20424;-38
2023/09/11 03:33:20;;;;;;;11.80;10.70;;;19.60;99.90;;;;;;5135165;27;20509;-39
2023/09/11 03:35:46;;;;;;;10.73;9.83;;;19.60;99.90;;;;;;5135210;27;20428;-40
2023/09/11 03:38:13;;;;;;;11.57;10.60;;;19.60;99.90;;;;;;5135444;27;20478;-41
2023/09/11 03:40:39;;;;;;;11.37;10.43;;;19.60;99.90;;;;;;5134268;27;20908;-40
2023/09/11 03:43:04;;;;;;;11.63;10.53;;;19.60;99.90;;;;;;5135292;27;20516;-38
2023/09/11 03:45:30;;;;;;;11.00;10.10;;;19.50;99.90;;;;;;5136201;27;20490;-39
2023/09/11 03:47:56;;;;;;;10.63;9.83;;;19.50;99.90;;;;;;5134384;27;20214;-38
2023/09/11 03:50:21;;;;;;;10.07;9.27;;;19.50;99.90;;;;;;5135752;27;20683;-40
2023/09/11 03:52:47;;;;;;;11.83;10.83;;;19.50;99.90;;;;;;5136437;27;20413;-37
2023/09/11 03:55:12;;;;;;;11.80;10.70;;;19.50;99.90;;;;;;5132320;28;20228;-40
2023/09/11 03:57:38;;;;;;;12.50;11.47;;;19.50;99.90;;;;;;5132845;28;20210;-39
2023/09/11 04:00:07;;;;;;;11.70;10.60;;;19.40;99.90;;;;;;5134157;27;20267;-40
2023/09/11 04:02:33;;;;;;;12.17;11.20;;;19.50;99.90;;;;;;5137506;27;20183;-39
2023/09/11 04:04:59;;;;;;;11.03;10.13;;;19.40;99.90;;;;;;5138851;27;20493;-40
2023/09/11 04:07:25;;;;;;;10.47;9.57;;;19.50;99.90;;;;;;5138636;27;20467;-43
2023/09/11 04:09:50;;;;;;;12.00;11.00;;;19.50;99.90;;;;;;5138490;27;20245;-42
2023/09/11 04:12:17;;;;;;;11.57;10.57;;;19.60;1.00;;;;;;5138154;27;20450;-39
2023/09/11 04:14:43;;;;;;;11.50;10.60;;;19.60;1.00;;;;;;5138026;27;20171;-40
2023/09/11 04:17:10;;;;;;;11.10;10.00;;;19.60;1.00;;;;;;5138254;27;20816;-43
2023/09/11 04:19:39;;;;;;;11.23;10.20;;;19.60;1.00;;;;;;5137523;27;20459;-43
2023/09/11 04:22:05;;;;;;;11.57;10.67;;;19.60;1.00;;;;;;5121037;27;20432;-40
2023/09/11 04:24:31;;;;;;;11.87;10.87;;;19.60;1.00;;;;;;5138915;27;20872;-42
2023/09/11 04:26:57;;;;;;;11.73;10.70;;;19.60;1.00;;;;;;5138861;27;20710;-42
2023/09/11 04:29:23;;;;;;;13.40;12.00;;;19.60;1.00;;;;;;5138610;27;20447;-43
2023/09/11 04:31:49;;;;;;;14.30;11.93;;;19.60;1.00;;;;;;5139215;27;20180;-43
2023/09/11 04:34:16;;;;;;;12.60;11.43;;;19.60;1.00;;;;;;5139546;27;20431;-43
2023/09/11 04:36:41;;;;;;;12.47;11.40;;;19.50;2.20;;;;;;5140526;27;20194;-43
2023/09/11 04:39:07;;;;;;;13.00;11.80;;;19.50;99.90;;;;;;5140494;27;20436;-41
2023/09/11 04:41:33;;;;;;;18.47;14.80;;;19.50;99.90;;;;;;5121206;27;20179;-45
2023/09/11 04:43:58;;;;;;;16.10;14.07;;;19.50;99.90;;;;;;5139260;27;20175;-45
2023/09/11 04:46:24;;;;;;;13.67;12.30;;;19.50;99.90;;;;;;5138245;27;20195;-38
2023/09/11 04:48:49;;;;;;;39.80;23.27;;;19.50;99.90;;;;;;5139036;27;20245;-41
2023/09/11 04:51:15;;;;;;;42.20;25.17;;;19.50;99.90;;;;;;5138026;27;20202;-44
2023/09/11 04:53:40;;;;;;;26.40;19.80;;;19.50;99.90;;;;;;5137750;27;20330;-38
2023/09/11 04:56:07;;;;;;;23.37;16.10;;;19.50;99.90;;;;;;5136311;27;20244;-40
2023/09/11 04:58:32;;;;;;;16.33;13.17;;;19.50;99.90;;;;;;5133338;27;20563;-41
2023/09/11 05:00:58;;;;;;;16.50;14.20;;;19.50;99.90;;;;;;5134044;27;20702;-42
2023/09/11 05:03:24;;;;;;;14.30;12.90;;;19.50;99.90;;;;;;5137323;27;20191;-40
2023/09/11 05:05:50;;;;;;;13.33;12.07;;;19.60;57.50;;;;;;5132634;27;20864;-41
2023/09/11 05:08:15;;;;;;;13.13;11.67;;;19.60;1.00;;;;;;5121036;27;20585;-40
2023/09/11 05:10:42;;;;;;;13.77;12.47;;;19.60;1.00;;;;;;5097246;28;20191;-40
2023/09/11 05:13:07;;;;;;;14.20;12.90;;;19.60;1.00;;;;;;5116173;27;20726;-39
2023/09/11 05:15:33;;;;;;;13.30;12.10;;;19.60;1.00;;;;;;5116815;28;20421;-39
2023/09/11 05:17:58;;;;;;;12.40;11.37;;;19.60;1.00;;;;;;5118221;28;20541;-40
2023/09/11 05:20:24;;;;;;;11.90;10.80;;;19.60;1.00;;;;;;5115597;28;20179;-38
2023/09/11 05:22:49;;;;;;;13.10;12.07;;;19.60;1.00;;;;;;5115874;28;20592;-39
2023/09/11 05:25:15;;;;;;;12.10;11.10;;;19.60;1.00;;;;;;5113911;28;20247;-43
2023/09/11 05:27:41;;;;;;;12.50;11.40;;;19.70;1.00;;;;;;5116317;28;20271;-40
2023/09/11 05:30:07;;;;;;;13.27;11.90;;;19.70;1.00;;;;;;5096843;28;20512;-42
2023/09/11 05:32:32;;;;;;;14.27;13.00;;;19.70;1.00;;;;;;5114743;28;20206;-41
2023/09/11 05:35:00;;;;;;;13.07;11.97;;;19.70;1.00;;;;;;5116990;28;20441;-41
2023/09/11 05:37:25;;;;;;;12.93;11.80;;;19.80;1.00;;;;;;5100093;28;20187;-40
2023/09/11 05:39:51;;;;;;;11.73;10.83;;;19.80;1.00;;;;;;5115775;28;20436;-40
2023/09/11 05:42:16;;;;;;;12.77;11.47;;;19.80;1.00;;;;;;5115906;28;20191;-41
2023/09/11 05:44:43;;;;;;;11.93;10.93;;;19.80;1.00;;;;;;5114583;28;20184;-39
2023/09/11 05:47:09;;;;;;;12.57;11.37;;;19.90;1.00;;;;;;5114457;28;20549;-41
2023/09/11 05:49:34;;;;;;;13.03;11.93;;;20.00;1.00;;;;;;5113812;28;20473;-40
2023/09/11 05:52:00;;;;;;;13.10;12.00;;;20.00;99.90;;;;;;5094149;28;20196;-40
2023/09/11 05:54:26;;;;;;;12.13;11.00;;;20.10;99.90;;;;;;5094438;28;20566;-38
2023/09/11 05:56:52;;;;;;;12.33;11.33;;;20.20;99.90;;;;;;5108939;28;20252;-38
2023/09/11 05:59:19;;;;;;;11.97;10.90;;;20.30;99.90;;;;;;5112172;28;20172;-42
2023/09/11 06:01:48;;;;;;;11.13;10.23;;;20.40;98.90;;;;;;5112376;28;20461;-42
2023/09/11 06:04:14;;;;;;;11.80;10.83;;;20.50;1.00;;;;;;5112749;28;20487;-42
2023/09/11 06:06:40;;;;;;;12.00;11.00;;;20.60;1.00;;;;;;5113843;28;20498;-40
2023/09/11 06:09:08;;;;;;;13.57;12.20;;;20.90;99.90;;;;;;5112027;28;20218;-42
2023/09/11 06:11:34;;;;;;;12.30;11.10;;;21.10;99.90;;;;;;5113233;28;20433;-42
2023/09/11 06:14:00;;;;;;;12.37;11.37;;;21.30;1.00;;;;;;5113086;28;20580;-40
2023/09/11 06:16:26;;;;;;;12.87;11.67;;;21.50;1.00;;;;;;5113532;28;20754;-40
2023/09/11 06:18:51;;;;;;;12.43;11.43;;;21.70;99.90;;;;;;5113949;28;20669;-42
2023/09/11 06:21:17;;;;;;;11.70;10.70;;;21.80;47.80;;;;;;5112123;28;20187;-40
2023/09/11 06:23:43;;;;;;;12.53;11.37;;;21.90;1.00;;;;;;5094273;28;20674;-41
2023/09/11 06:26:18;;;;;;;12.77;11.57;;;22.00;1.00;;;;;;5113353;28;20456;-41
2023/09/11 06:28:44;;;;;;;13.17;12.00;;;22.20;1.00;;;;;;5112098;28;20214;-41
2023/09/11 06:31:10;;;;;;;14.30;12.90;;;22.30;99.90;;;;;;5113454;28;20670;-40
2023/09/11 06:33:36;;;;;;;13.33;12.03;;;22.40;99.90;;;;;;5091976;28;20305;-41
2023/09/11 06:36:02;;;;;;;13.50;12.30;;;22.40;99.90;;;;;;5112575;28;20432;-42
2023/09/11 06:38:28;;;;;;;12.43;11.43;;;22.40;99.90;;;;;;5077414;28;20187;-40
2023/09/11 06:40:54;;;;;;;15.17;13.83;;;22.40;99.90;;;;;;5111236;28;20440;-39
2023/09/11 06:43:20;;;;;;;11.80;10.90;;;22.40;99.90;;;;;;5113352;28;20183;-42
2023/09/11 06:45:45;;;;;;;12.53;11.43;;;22.40;99.90;;;;;;5114111;28;20192;-43
2023/09/11 06:48:11;;;;;;;13.40;12.17;;;22.50;99.90;;;;;;5114027;28;20613;-41
2023/09/11 06:50:38;;;;;;;12.73;11.47;;;22.50;99.90;;;;;;5114144;28;20574;-40
2023/09/11 06:53:07;;;;;;;12.20;11.00;;;22.60;62.30;;;;;;5115110;28;20675;-42
2023/09/11 06:55:33;;;;;;;14.73;12.30;;;22.70;2.50;;;;;;5110493;28;20588;-43
2023/09/11 06:57:59;;;;;;;13.83;12.70;;;22.80;1.00;;;;;;5111050;28;20529;-41
2023/09/11 07:00:25;;;;;;;13.33;12.13;;;22.90;1.00;;;;;;5109572;28;20518;-40
2023/09/11 07:02:50;;;;;;;13.97;12.47;;;23.00;1.00;;;;;;5091425;28;20491;-40
2023/09/11 07:05:20;;;;;;;13.60;12.20;;;23.10;1.00;;;;;;5110551;28;20804;-40
2023/09/11 07:07:46;;;;;;;14.80;13.63;;;23.20;1.00;;;;;;5110213;28;20237;-42
2023/09/11 07:10:14;;;;;;;12.83;11.80;;;23.30;1.00;;;;;;5112545;28;20469;-41
2023/09/11 07:12:40;;;;;;;12.67;11.37;;;23.40;1.00;;;;;;5122803;27;20475;-40
2023/09/11 07:15:07;;;;;;;14.53;13.13;;;23.60;1.00;;;;;;5131861;27;20429;-42
2023/09/11 07:17:32;;;;;;;14.70;12.27;;;23.70;1.00;;;;;;5130586;27;20454;-41
2023/09/11 07:19:58;;;;;;;15.47;14.00;;;23.80;1.00;;;;;;5131736;27;20579;-42
2023/09/11 07:22:23;;;;;;;13.77;12.50;;;24.00;1.00;;;;;;5113129;27;20697;-39
2023/09/11 07:24:49;;;;;;;15.00;12.27;;;24.10;99.90;;;;;;5114379;27;20233;-40
2023/09/11 07:27:14;;;;;;;12.57;11.33;;;24.30;99.90;;;;;;5113850;27;20222;-40
2023/09/11 07:29:40;;;;;;;14.40;13.10;;;24.40;99.90;;;;;;5130042;27;20279;-39
2023/09/11 07:32:06;;;;;;;14.00;12.90;;;24.60;99.90;;;;;;5130128;27;20248;-40
2023/09/11 07:34:32;;;;;;;13.23;12.07;;;24.70;99.90;;;;;;5132480;27;20210;-39
2023/09/11 07:36:58;;;;;;;15.63;13.33;;;24.90;99.90;;;;;;5134175;27;20528;-42
2023/09/11 07:39:23;;;;;;;16.17;12.53;;;24.90;99.90;;;;;;5136191;27;20439;-40
2023/09/11 07:41:49;;;;;;;12.53;11.33;;;25.10;99.90;;;;;;5133834;27;20211;-40
2023/09/11 07:44:15;;;;;;;12.03;10.83;;;25.30;99.90;;;;;;5135924;27;20182;-40
2023/09/11 07:46:40;;;;;;;11.90;11.00;;;25.40;91.30;;;;;;5134575;27;20187;-40
2023/09/11 07:49:06;;;;;;;11.27;10.27;;;25.70;49.30;;;;;;5130936;27;20264;-41
2023/09/11 07:51:32;;;;;;;12.63;11.27;;;25.80;23.70;;;;;;5132898;27;20473;-40
2023/09/11 07:53:58;;;;;;;12.40;11.10;;;25.90;1.00;;;;;;5134356;28;20218;-40
2023/09/11 07:56:24;;;;;;;11.97;10.77;;;26.10;1.00;;;;;;5134096;28;20175;-38
2023/09/11 07:58:50;;;;;;;12.70;11.43;;;26.20;1.00;;;;;;5135417;28;20439;-43
2023/09/11 08:01:17;;;;;;;12.33;11.03;;;26.50;1.00;;;;;;5132122;28;20518;-39
2023/09/11 08:03:44;;;;;;;11.63;10.60;;;26.60;1.00;;;;;;5132993;28;20496;-39
2023/09/11 08:06:10;;;;;;;12.50;11.40;;;26.90;1.00;;;;;;5115076;28;20726;-40
2023/09/11 08:08:35;;;;;;;12.03;11.03;;;27.20;1.00;;;;;;5132920;28;20452;-39
2023/09/11 08:11:15;;;;;;;11.83;10.77;;;27.40;1.00;;;;;;5132732;28;20562;-41
2023/09/11 08:13:40;;;;;;;11.33;10.33;;;27.80;1.00;;;;;;5132074;28;20230;-39
2023/09/11 08:16:06;;;;;;;11.40;10.50;;;28.10;1.00;;;;;;5112469;28;20703;-41
2023/09/11 08:18:31;;;;;;;11.43;10.53;;;28.50;1.00;;;;;;5131905;28;20264;-41
2023/09/11 08:20:57;;;;;;;11.70;10.57;;;28.60;1.00;;;;;;5132366;28;20247;-40
2023/09/11 08:23:23;;;;;;;12.47;11.17;;;28.60;1.00;;;;;;5131293;28;20603;-40
2023/09/11 08:25:48;;;;;;;12.27;11.13;;;28.60;1.00;;;;;;5133121;28;20199;-39
2023/09/11 08:28:14;;;;;;;10.90;9.97;;;28.60;1.00;;;;;;5134053;28;20532;-38
2023/09/11 08:30:39;;;;;;;11.00;9.90;;;28.80;1.00;;;;;;5132835;28;20199;-49
2023/09/11 08:33:05;;;;;;;9.40;8.70;;;29.20;1.00;;;;;;5133207;28;20199;-42
2023/09/11 08:35:31;;;;;;;11.80;10.70;;;29.50;1.00;;;;;;5135260;28;20183;-39
2023/09/11 08:37:56;;;;;;;10.83;10.03;;;29.90;1.00;;;;;;5119385;28;20257;-38
2023/09/11 08:40:28;;;;;;;10.10;9.10;;;30.20;1.00;;;;;;5118822;28;20448;-40
2023/09/11 08:42:54;;;;;;;9.93;9.13;;;30.40;1.00;;;;;;5113869;28;20485;-36
2023/09/11 08:45:20;;;;;;;12.00;10.50;;;30.80;1.00;;;;;;5114198;28;20438;-37
2023/09/11 08:47:47;;;;;;;10.23;9.33;;;31.10;1.00;;;;;;5119896;27;20425;-38
2023/09/11 08:50:13;;;;;;;10.67;9.77;;;31.50;1.00;;;;;;5120590;27;20231;-36
2023/09/11 08:52:40;;;;;;;11.00;10.10;;;31.70;1.00;;;;;;5118837;27;20523;-38
2023/09/11 08:55:09;;;;;;;11.20;10.10;;;31.90;1.00;;;;;;5136826;27;20278;-37
2023/09/11 08:57:36;;;;;;;10.13;9.33;;;32.10;1.00;;;;;;5136126;27;20400;-37
2023/09/11 09:00:09;;;;;;;10.23;9.27;;;32.40;1.00;;;;;;5117214;27;20395;-39
2023/09/11 09:02:35;;;;;;;8.93;8.23;;;32.50;1.00;;;;;;5135047;27;20498;-39
2023/09/11 09:05:03;;;;;;;9.07;8.13;;;32.80;1.00;;;;;;5116777;27;20428;-37
2023/09/11 09:07:30;;;;;;;8.60;7.80;;;33.10;1.00;;;;;;5136238;27;20395;-37
2023/09/11 09:09:56;;;;;;;9.20;8.37;;;33.50;1.00;;;;;;5117927;27;20474;-38
2023/09/11 09:12:23;;;;;;;9.37;8.53;;;33.90;1.00;;;;;;5137065;27;20472;-37
2023/09/11 09:14:49;;;;;;;9.63;8.73;;;34.30;1.00;;;;;;5117539;27;20853;-39
2023/09/11 09:17:15;;;;;;;11.93;8.47;;;34.70;1.00;;;;;;5135389;27;20534;-38
2023/09/11 09:19:40;;;;;;;9.90;8.40;;;34.90;1.00;;;;;;5137011;27;20576;-39
2023/09/11 09:22:06;;;;;;;9.60;8.90;;;35.10;1.00;;;;;;5136810;27;20195;-38
2023/09/11 09:24:35;;;;;;;11.07;8.37;;;35.40;1.00;;;;;;5136351;27;20307;-37
2023/09/11 09:27:06;;;;;;;10.03;9.07;;;35.60;1.00;;;;;;5136855;27;20281;-39
2023/09/11 09:29:39;;;;;;;9.10;8.30;;;35.80;1.00;;;;;;5136394;27;20442;-38
2023/09/11 09:32:06;;;;;;;9.27;8.37;;;36.00;1.00;;;;;;5134491;27;20420;-40
2023/09/11 09:34:32;;;;;;;8.87;8.17;;;36.10;1.00;;;;;;5119359;27;20421;-38
2023/09/11 09:36:58;;;;;;;10.17;9.37;;;36.30;1.00;;;;;;5119824;27;20403;-36
2023/09/11 09:39:28;;;;;;;9.83;8.93;;;36.50;1.00;;;;;;5134210;27;20521;-37
2023/09/11 09:41:58;;;;;;;9.80;8.97;;;36.50;1.00;;;;;;5117697;27;20187;-39
2023/09/11 09:44:31;;;;;;;8.97;8.27;;;36.70;1.00;;;;;;5134795;27;20469;-37
2023/09/11 09:47:02;;;;;;;10.33;9.33;;;36.80;1.00;;;;;;5133317;27;20407;-38
2023/09/11 09:49:27;;;;;;;10.20;9.27;;;36.90;1.00;;;;;;5117526;27;20758;-37
2023/09/11 09:51:53;;;;;;;10.20;9.40;;;36.80;1.00;;;;;;5133582;27;20411;-38
2023/09/11 09:54:19;;;;;;;9.80;8.63;;;36.80;1.00;;;;;;5115788;27;20180;-37
2023/09/11 09:56:46;;;;;;;10.20;8.70;;;36.80;1.00;;;;;;5116370;28;20196;-38
2023/09/11 09:59:12;;;;;;;10.80;9.33;;;36.80;1.00;;;;;;5113992;28;20199;-35
2023/09/11 10:01:47;;;;;;;9.73;8.83;;;36.90;1.00;;;;;;5114330;28;20446;-37
2023/09/11 10:04:16;;;;;;;9.80;8.90;;;37.10;1.00;;;;;;5114376;28;20596;-36
2023/09/11 10:06:42;;;;;;;9.20;8.50;;;37.50;1.00;;;;;;5079020;28;20434;-38
2023/09/11 10:09:10;;;;;;;9.73;8.93;;;37.80;1.00;;;;;;5093104;28;20994;-40
2023/09/11 10:11:37;;;;;;;10.07;9.07;;;38.20;1.00;;;;;;5093753;28;20576;-39
2023/09/11 10:14:04;;;;;;;10.10;9.37;;;38.60;1.00;;;;;;5093631;28;20434;-38
2023/09/11 10:16:30;;;;;;;9.73;8.97;;;38.60;1.00;;;;;;5095382;28;20796;-37
2023/09/11 10:18:57;;;;;;;9.17;8.40;;;38.70;1.00;;;;;;5078569;28;20476;-38
2023/09/11 10:21:24;;;;;;;10.30;9.40;;;38.90;1.00;;;;;;5088928;28;20637;-39
2023/09/11 10:23:49;;;;;;;11.80;8.40;;;38.90;1.00;;;;;;5097499;28;20704;-39
2023/09/11 10:26:19;;;;;;;8.50;7.60;;;38.90;1.00;;;;;;5095690;28;20460;-38
2023/09/11 10:28:48;;;;;;;8.23;7.50;;;39.00;1.00;;;;;;5096244;28;20457;-38
2023/09/11 10:31:25;;;;;;;11.50;8.47;;;39.00;1.00;;;;;;5094421;28;20426;-39
2023/09/11 10:33:55;;;;;;;7.93;7.17;;;39.10;1.00;;;;;;5094793;28;20384;-40
2023/09/11 10:36:26;;;;;;;8.03;7.20;;;39.10;1.00;;;;;;5113651;28;20410;-38
2023/09/11 10:38:55;;;;;;;8.37;7.50;;;39.30;1.00;;;;;;5094838;28;20777;-37
2023/09/11 10:41:21;;;;;;;8.30;7.03;;;39.30;1.00;;;;;;5095804;28;20470;-37
2023/09/11 10:43:47;;;;;;;11.03;8.40;;;39.30;1.00;;;;;;5113007;28;20400;-38
2023/09/11 10:46:22;;;;;;;13.00;7.13;;;39.20;1.00;;;;;;5093981;28;20183;-37
2023/09/11 10:48:48;;;;;;;8.20;7.33;;;39.60;1.00;;;;;;5112270;28;20459;-40
2023/09/11 10:51:14;;;;;;;7.47;6.70;;;39.90;1.00;;;;;;5114284;28;20410;-38
2023/09/11 10:53:41;;;;;;;11.27;6.73;;;40.20;1.00;;;;;;5094939;28;20452;-36
2023/09/11 10:56:07;;;;;;;7.83;6.70;;;40.50;1.00;;;;;;5114801;28;20421;-40
2023/09/11 10:58:33;;;;;;;11.77;7.00;;;40.80;1.00;;;;;;5113881;28;20443;-37
2023/09/11 11:00:58;;;;;;;8.03;7.00;;;40.90;1.00;;;;;;5096498;28;20433;-37
2023/09/11 11:03:34;;;;;;;8.13;6.70;;;41.40;1.00;;;;;;5094070;28;20780;-36
2023/09/11 11:06:01;;;;;;;7.60;6.90;;;41.80;1.00;;;;;;5113076;28;20403;-38
2023/09/11 11:13:24;;;;;;;9.63;7.70;;;42.70;1.00;;;;;;5109829;28;21014;-37
2023/09/11 11:16:21;;;;;;;8.33;7.10;;;42.70;1.00;;;;;;5111920;28;20306;-40
2023/09/11 11:18:54;;;;;;;10.77;7.97;;;42.20;1.00;;;;;;5109524;28;20546;-38
2023/09/11 11:21:20;;;;;;;8.50;7.70;;;41.60;1.00;;;;;;5094918;28;20892;-37
2023/09/11 11:23:56;;;;;;;8.87;8.03;;;41.30;1.00;;;;;;5111446;28;20406;-39
2023/09/11 11:26:26;;;;;;;8.67;7.77;;;41.10;1.00;;;;;;5094047;28;20183;-39
2023/09/11 11:28:52;;;;;;;9.93;7.63;;;40.60;1.00;;;;;;5093376;28;20469;-37
2023/09/11 11:31:20;;;;;;;10.30;7.30;;;40.70;1.00;;;;;;5110817;28;20700;-38
2023/09/11 11:33:48;;;;;;;10.77;7.27;;;41.00;1.00;;;;;;5112815;28;20187;-37
2023/09/11 11:36:14;;;;;;;9.87;7.20;;;41.20;1.00;;;;;;5113446;28;20493;-39
2023/09/11 11:38:42;;;;;;;9.40;7.70;;;41.20;1.00;;;;;;5112238;28;20591;-38
2023/09/11 11:41:08;;;;;;;8.90;7.27;;;41.70;1.00;;;;;;5112033;28;20417;-38
2023/09/11 11:43:34;;;;;;;8.90;7.00;;;42.10;1.00;;;;;;5112356;28;20728;-39
2023/09/11 11:46:00;;;;;;;10.40;7.63;;;42.70;1.00;;;;;;5112674;28;20506;-40
2023/09/11 11:48:28;;;;;;;11.90;8.50;;;43.30;1.00;;;;;;5111002;28;20188;-38
2023/09/11 11:50:55;;;;;;;9.20;8.30;;;43.40;1.00;;;;;;5092351;28;20402;-38
2023/09/11 11:53:23;;;;;;;9.00;8.07;;;43.10;1.00;;;;;;5092850;28;20423;-40
2023/09/11 11:55:49;;;;;;;8.63;7.73;;;43.00;1.00;;;;;;5112595;28;21021;-37
2023/09/11 11:58:16;;;;;;;8.03;6.63;;;43.30;1.00;;;;;;5114437;28;20497;-38
2023/09/11 12:00:55;;;;;;;9.73;8.80;;;43.50;1.00;;;;;;5112106;28;20627;-37
2023/09/11 12:03:20;;;;;;;10.13;8.47;;;42.90;1.00;;;;;;5113074;28;20421;-38
2023/09/11 12:05:47;;;;;;;9.13;8.13;;;42.60;1.00;;;;;;5113554;28;20445;-41
2023/09/11 12:08:13;;;;;;;12.70;8.73;;;42.10;1.00;;;;;;5113704;28;20254;-39
2023/09/11 12:10:48;;;;;;;9.30;8.50;;;41.70;1.00;;;;;;5114492;28;20491;-38
2023/09/11 12:13:32;;;;;;;9.03;7.50;;;41.80;1.00;;;;;;5112169;28;20472;-38
2023/09/11 12:15:58;;;;;;;9.30;8.40;;;42.20;1.00;;;;;;5094543;28;20652;-40
2023/09/11 12:18:26;;;;;;;10.03;7.43;;;42.40;1.00;;;;;;5113312;28;20723;-39
2023/09/11 12:20:54;;;;;;;9.97;7.40;;;42.50;1.00;;;;;;5112871;28;20652;-39
2023/09/11 12:23:20;;;;;;;8.83;7.87;;;42.60;1.00;;;;;;5116521;28;20402;-37
2023/09/11 12:25:47;;;;;;;11.07;7.80;;;42.00;1.00;;;;;;5116028;28;20426;-39
2023/09/11 12:28:13;;;;;;;9.50;7.80;;;41.40;1.00;;;;;;5115385;28;20429;-39
2023/09/11 12:30:39;;;;;;;8.77;7.87;;;40.70;1.00;;;;;;5096607;28;20533;-39
2023/09/11 12:33:07;;;;;;;9.40;8.40;;;40.90;1.00;;;;;;5097514;28;20194;-38
2023/09/11 12:35:34;;;;;;;9.23;8.43;;;40.90;1.00;;;;;;5081597;28;20428;-38
2023/09/11 12:37:59;;;;;;;9.07;8.27;;;41.40;1.00;;;;;;5116179;28;20856;-41
2023/09/11 12:40:25;;;;;;;10.13;8.10;;;41.90;1.00;;;;;;5081413;28;20461;-39
2023/09/11 12:42:51;;;;;;;9.17;8.20;;;42.40;1.00;;;;;;5097433;28;20296;-39